Avenal, CA

10:17 PM PDT on June 29, 2015 (GMT -0700)
Coalinga | | Change Station
CLOSE
Current Station
Personal Weather Station
Location: Coalinga, CA
Elevation: 676 ft
Nearby Weather Stations

Elev 676 ft 36.13 °N, 120.35 °W | Updated 9 minutes ago

Clear
Clear
86.2 °F
Feels Like 85 °F
N
3.2
Wind Variable Wind from SSE

Today
High -- | Low -- °F
--% Chance of Precip.
Yesterday
High -- | Low -- °F
Precip. -- in
5:46 AM 8:21 PM
Waxing Gibbous, 96% visible
Pressure 29.86 in
Visibility 10.0 miles
Clouds Few 9000 ft
Scattered Clouds 15000 ft
Scattered Clouds 22000 ft
Heat Index 85 °F
Dew Point 55 °F
Humidity 35%
Rainfall 0.00 in
Snow Depth Not available.
UV 0 out of 12
Pollen 5.50 out of 12
Air Quality Not available.
Flu Activity Sporadic
METAR KNLC 300456Z 32007KT 10SM FEW090 SCT150 SCT220 30/13 A2987 RMK AO2 SLP111 RH/35 T03000133

More Conditions Fewer Conditions

Pressure 29.86 in
Visibility 10.0 miles
Clouds Few 9000 ft
Scattered Clouds 15000 ft
Scattered Clouds 22000 ft
Heat Index 85 °F
Dew Point 55 °F
Humidity 35%
Rainfall 0.00 in
Snow Depth Not available.
UV 0 out of 12
Pollen 5.50 out of 12
Air Quality Not available.
Flu Activity Sporadic
METAR KNLC 300456Z 32007KT 10SM FEW090 SCT150 SCT220 30/13 A2987 RMK AO2 SLP111 RH/35 T03000133

More Conditions Fewer Conditions

10-Day Weather Forecast

×

Almanac

Astronomy

Jun. 29, 2015 Rise Set
Actual Time
Civil Twilight
Nautical Twilight
Astronomical Twilight
Moon
Length of Visible Light
Length of Day
Tomorrow will be .
, % of the Moon is Illuminated

Today's Extremes

State Highs State Lows

Community

WunderPhotos

Upload Photos

1,833,969 photos uploaded!

WunderBlogs® & News

Nearby

Air Quality

  Air Quality AQ Index Pollutant
Not available.

Snow Depth

Station Depth Elevation

Earthquake Activity

City Distance Mag. Time & Date
Minimum magnitude displayed is 2.5.

Coastal Water Temperatures

Place Temperature

Stations

Nearby Weather Stations

Station Location Temp. Windchill Dew Point Humidity Wind Precip. Elev Updated Type